Time;durP1;ratioP1;P1;durP2;ratioP2;P2;SDS_P1;SDS_P2;PMS_P1;PMS_P2;Temp;Humidity;BMP_temperature;BMP_pressure;BME280_temperature;BME280_humidity;BME280_pressure;Samples;Min_cycle;Max_cycle;Signal;HPM_P1;HPM_P2
2024/02/28 00:00:55;;;;;;;;;;;;;;;4.16;100.00;102004.84;5087098;28;19942;-76
2024/02/28 00:03:21;;;;;;;;;;;;;;;4.18;100.00;102000.53;5063502;28;19947;-76
2024/02/28 00:05:48;;;;;;;;;;;;;;;4.18;100.00;102000.53;5075165;28;19927;-76
2024/02/28 00:08:13;;;;;;;;;;;;;;;4.19;100.00;101991.91;5083945;28;19952;-76
2024/02/28 00:10:38;;;;;;;;;;;;;;;4.18;100.00;101991.03;5081674;28;19920;-76
2024/02/28 00:13:03;;;;;;;;;;;;;;;4.18;100.00;102001.41;5080252;28;19920;-76
2024/02/28 00:15:29;;;;;;;;;;;;;;;4.18;100.00;102003.13;5058342;28;20337;-76
2024/02/28 00:17:54;;;;;;;;;;;;;;;4.19;100.00;101986.72;5078804;28;19958;-76
2024/02/28 00:20:19;;;;;;;;;;;;;;;4.19;100.00;101989.31;5093412;28;19953;-76
2024/02/28 00:22:45;;;;;;;;;;;;;;;4.17;100.00;101993.63;5075514;28;19920;-76
2024/02/28 00:25:11;;;;;;;;;;;;;;;4.16;100.00;101995.31;5093770;28;19928;-76
2024/02/28 00:27:36;;;;;;;;;;;;;;;4.15;100.00;101991.03;5086385;28;19909;-76
2024/02/28 00:30:04;;;;;;;;;;;;;;;4.15;100.00;101990.16;5078169;28;19943;-76
2024/02/28 00:32:30;;;;;;;;;;;;;;;4.16;100.00;101994.47;5092960;28;19920;-76
2024/02/28 00:34:55;;;;;;;;;;;;;;;4.13;100.00;101997.94;5090568;28;20242;-76
2024/02/28 00:37:21;;;;;;;;;;;;;;;4.09;100.00;101995.31;5076787;28;20274;-76
2024/02/28 00:39:46;;;;;;;;;;;;;;;4.07;100.00;101991.84;5089013;28;19927;-76
2024/02/28 00:42:11;;;;;;;;;;;;;;;4.04;100.00;101993.56;5092755;28;19994;-76
2024/02/28 00:44:37;;;;;;;;;;;;;;;4.01;100.00;101990.09;5076605;28;19927;-76
2024/02/28 00:47:02;;;;;;;;;;;;;;;4.00;100.00;101994.41;5075357;28;19920;-76
2024/02/28 00:49:27;;;;;;;;;;;;;;;3.98;100.00;101993.53;5085331;28;20258;-76
2024/02/28 00:51:52;;;;;;;;;;;;;;;3.96;100.00;101997.81;5093235;28;19920;-76
2024/02/28 00:54:17;;;;;;;;;;;;;;;3.92;100.00;101997.81;5076849;28;19942;-76
2024/02/28 00:56:43;;;;;;;;;;;;;;;3.90;100.00;102008.16;5077812;28;20026;-76
2024/02/28 00:59:10;;;;;;;;;;;;;;;3.90;100.00;102010.75;5084123;28;20201;-76
2024/02/28 01:01:36;;;;;;;;;;;;;;;3.90;100.00;102009.91;5057062;28;19921;-76
2024/02/28 01:04:01;;;;;;;;;;;;;;;3.89;100.00;102002.97;5075275;28;19920;-76
2024/02/28 01:06:26;;;;;;;;;;;;;;;3.90;100.00;102005.56;5089089;28;20120;-76
2024/02/28 01:08:51;;;;;;;;;;;;;;;3.91;100.00;102002.13;5084008;28;19935;-76
2024/02/28 01:11:17;;;;;;;;;;;;;;;3.92;100.00;102003.84;5078389;28;19927;-76
2024/02/28 01:13:42;;;;;;;;;;;;;;;3.95;100.00;101995.25;5078368;28;19965;-76
2024/02/28 01:16:07;;;;;;;;;;;;;;;3.98;100.00;102003.03;5093038;28;19924;-76
2024/02/28 01:18:33;;;;;;;;;;;;;;;3.97;100.00;101996.97;5092843;28;20264;-76
2024/02/28 01:20:58;;;;;;;;;;;;;;;3.98;100.00;101987.47;5093802;28;20234;-76
2024/02/28 01:23:23;;;;;;;;;;;;;;;3.94;100.00;101991.78;5078382;28;19942;-76
2024/02/28 01:25:48;;;;;;;;;;;;;;;3.97;100.00;101991.78;5088604;28;19920;-76
2024/02/28 01:28:14;;;;;;;;;;;;;;;3.95;100.00;101985.75;5081597;28;19920;-76
2024/02/28 01:30:39;;;;;;;;;;;;;;;3.97;100.00;101991.78;5090714;28;19926;-76
2024/02/28 01:33:04;;;;;;;;;;;;;;;3.97;100.00;101986.63;5091558;28;19954;-76
2024/02/28 01:35:29;;;;;;;;;;;;;;;4.01;100.00;101979.72;5085244;28;19930;-76
2024/02/28 01:37:55;;;;;;;;;;;;;;;4.03;100.00;101980.59;5097764;28;19916;-76
2024/02/28 01:40:21;;;;;;;;;;;;;;;4.03;100.00;101986.63;5077777;28;19987;-76
2024/02/28 01:42:46;;;;;;;;;;;;;;;4.04;100.00;101988.38;5077407;28;19931;-76
2024/02/28 01:45:13;;;;;;;;;;;;;;;4.04;100.00;101992.69;5077394;28;19988;-76
2024/02/28 01:47:38;;;;;;;;;;;;;;;4.05;100.00;101994.41;5059755;28;20096;-76
2024/02/28 01:50:04;;;;;;;;;;;;;;;4.09;100.00;101997.88;5077379;28;19986;-76
2024/02/28 01:52:30;;;;;;;;;;;;;;;4.11;100.00;101991.88;5084815;28;20107;-76
2024/02/28 01:54:56;;;;;;;;;;;;;;;4.12;100.00;101995.31;5081221;28;19924;-76
2024/02/28 01:57:22;;;;;;;;;;;;;;;4.10;100.00;101990.13;5077410;28;20017;-76
2024/02/28 01:59:47;;;;;;;;;;;;;;;4.14;100.00;101983.22;5077357;28;19928;-77
2024/02/28 02:02:13;;;;;;;;;;;;;;;4.16;100.00;101987.53;5077630;28;19916;-76
2024/02/28 02:04:38;;;;;;;;;;;;;;;4.19;100.00;101984.97;5077550;28;19979;-76
2024/02/28 02:07:03;;;;;;;;;;;;;;;4.20;100.00;101978.06;5059248;28;19920;-76
2024/02/28 02:09:29;;;;;;;;;;;;;;;4.19;100.00;101984.97;5078673;28;19928;-76
2024/02/28 02:11:54;;;;;;;;;;;;;;;4.22;100.00;101978.94;5091865;28;19920;-76
2024/02/28 02:14:19;;;;;;;;;;;;;;;4.26;100.00;101975.50;5093319;28;20001;-76
2024/02/28 02:16:44;;;;;;;;;;;;;;;4.28;100.00;101975.53;5096491;28;19928;-77
2024/02/28 02:19:10;;;;;;;;;;;;;;;4.29;100.00;101978.09;5089793;28;19932;-76
2024/02/28 02:21:39;;;;;;;;;;;;;;;4.29;100.00;101982.41;5077213;28;19924;-76
2024/02/28 02:24:05;;;;;;;;;;;;;;;4.31;100.00;101983.28;5077913;28;19912;-76
2024/02/28 02:26:30;;;;;;;;;;;;;;;4.32;100.00;101977.25;5078934;28;19938;-76
2024/02/28 02:28:55;;;;;;;;;;;;;;;4.33;100.00;101987.63;5086685;28;19920;-76
2024/02/28 02:31:20;;;;;;;;;;;;;;;4.33;100.00;101987.63;5074929;28;19995;-76
2024/02/28 02:33:46;;;;;;;;;;;;;;;4.36;100.00;101990.22;5092283;28;20146;-76
2024/02/28 02:36:11;;;;;;;;;;;;;;;4.39;100.00;101982.47;5089673;28;19931;-76
2024/02/28 02:38:36;;;;;;;;;;;;;;;4.41;100.00;101985.91;5077909;28;19919;-76
2024/02/28 02:41:01;;;;;;;;;;;;;;;4.43;100.00;101983.34;5082734;28;20006;-76
2024/02/28 02:43:26;;;;;;;;;;;;;;;4.45;100.00;101984.19;5090343;28;20119;-76
2024/02/28 02:45:52;;;;;;;;;;;;;;;4.44;100.00;101979.91;5089403;28;19927;-76
2024/02/28 02:48:17;;;;;;;;;;;;;;;4.46;100.00;101979.88;5080055;28;19963;-76
2024/02/28 02:50:42;;;;;;;;;;;;;;;4.46;100.00;101972.97;5088721;28;20147;-76
2024/02/28 02:53:09;;;;;;;;;;;;;;;4.43;100.00;101979.00;5094256;28;20263;-76
2024/02/28 02:55:35;;;;;;;;;;;;;;;4.46;100.00;101983.34;5094163;28;19916;-76
2024/02/28 02:58:00;;;;;;;;;;;;;;;4.46;100.00;101978.16;5077601;28;20220;-76
2024/02/28 03:00:26;;;;;;;;;;;;;;;4.50;100.00;101977.31;5076489;28;19913;-76
2024/02/28 03:02:51;;;;;;;;;;;;;;;4.55;100.00;101975.59;5083971;28;19983;-76
2024/02/28 03:05:16;;;;;;;;;;;;;;;4.56;100.00;101966.94;5081713;28;19925;-76
2024/02/28 03:07:41;;;;;;;;;;;;;;;4.57;100.00;101970.41;5085539;28;19970;-76
2024/02/28 03:10:07;;;;;;;;;;;;;;;4.58;100.00;101973.03;5083695;28;19928;-76
2024/02/28 03:12:32;;;;;;;;;;;;;;;4.60;100.00;101971.28;5077774;28;19950;-76
2024/02/28 03:14:57;;;;;;;;;;;;;;;4.60;100.00;101973.00;5085292;28;19924;-77
2024/02/28 03:17:22;;;;;;;;;;;;;;;4.61;100.00;101970.41;5077900;28;19920;-76
2024/02/28 03:19:48;;;;;;;;;;;;;;;4.67;100.00;101981.66;5075686;28;19943;-76
2024/02/28 03:22:13;;;;;;;;;;;;;;;4.70;100.00;101973.91;5081578;28;19968;-76
2024/02/28 03:24:38;;;;;;;;;;;;;;;4.71;100.00;101976.50;5087344;28;19920;-76
2024/02/28 03:27:04;;;;;;;;;;;;;;;4.74;100.00;101968.69;5083006;28;19962;-76
2024/02/28 03:29:29;;;;;;;;;;;;;;;4.78;100.00;101966.97;5089666;28;19920;-76
2024/02/28 03:31:55;;;;;;;;;;;;;;;4.78;100.00;101967.88;5082988;28;20271;-76
2024/02/28 03:34:20;;;;;;;;;;;;;;;4.76;100.00;101958.31;5086679;28;19921;-76
2024/02/28 03:36:46;;;;;;;;;;;;;;;4.77;100.00;101958.34;5086584;28;19938;-76
2024/02/28 03:39:11;;;;;;;;;;;;;;;4.79;100.00;101956.59;5090175;28;19920;-76
2024/02/28 03:41:36;;;;;;;;;;;;;;;4.77;100.00;101955.72;5081045;28;19919;-76
2024/02/28 03:44:01;;;;;;;;;;;;;;;4.77;100.00;101958.34;5057205;28;19958;-76
2024/02/28 03:46:26;;;;;;;;;;;;;;;4.80;100.00;101963.53;5085953;28;19924;-76
2024/02/28 03:48:52;;;;;;;;;;;;;;;4.83;100.00;101956.63;5088510;28;19948;-76
2024/02/28 03:51:17;;;;;;;;;;;;;;;4.83;100.00;101965.25;5075262;28;19916;-76
2024/02/28 03:53:42;;;;;;;;;;;;;;;4.85;100.00;101957.47;5075472;28;19920;-76
2024/02/28 03:56:07;;;;;;;;;;;;;;;4.85;100.00;101957.47;5086999;28;19991;-76
2024/02/28 03:58:33;;;;;;;;;;;;;;;4.87;100.00;101960.94;5058608;28;19927;-76
2024/02/28 04:00:58;;;;;;;;;;;;;;;4.87;100.00;101959.19;5079700;28;19962;-76
2024/02/28 04:03:23;;;;;;;;;;;;;;;4.87;100.00;101961.78;5089581;28;19920;-76
2024/02/28 04:05:48;;;;;;;;;;;;;;;4.89;100.00;101967.00;5060091;28;20278;-77
2024/02/28 04:08:13;;;;;;;;;;;;;;;4.90;100.00;101968.75;5082205;28;19931;-76
2024/02/28 04:10:39;;;;;;;;;;;;;;;4.88;100.00;101963.53;5080225;28;20317;-76
2024/02/28 04:13:04;;;;;;;;;;;;;;;4.89;100.00;101975.63;5074960;28;19920;-76
2024/02/28 04:15:30;;;;;;;;;;;;;;;4.90;100.00;101968.75;5087402;28;20440;-76
2024/02/28 04:17:55;;;;;;;;;;;;;;;4.90;100.00;101969.59;5079571;28;19927;-76
2024/02/28 04:20:20;;;;;;;;;;;;;;;4.91;100.00;101967.84;5076035;28;19927;-76
2024/02/28 04:22:46;;;;;;;;;;;;;;;4.93;100.00;101963.53;5085892;28;19920;-76
2024/02/28 04:25:11;;;;;;;;;;;;;;;4.93;100.00;101976.50;5086205;28;20236;-76
2024/02/28 04:27:36;;;;;;;;;;;;;;;4.93;100.00;101979.09;5094886;28;19916;-76
2024/02/28 04:30:02;;;;;;;;;;;;;;;4.93;100.00;101986.88;5088865;28;19919;-76
2024/02/28 04:32:27;;;;;;;;;;;;;;;4.94;100.00;101984.28;5086125;28;19921;-76
2024/02/28 04:34:53;;;;;;;;;;;;;;;4.95;100.00;101990.38;5076462;28;20185;-76
2024/02/28 04:37:18;;;;;;;;;;;;;;;4.96;100.00;101990.34;5078671;28;19943;-76
2024/02/28 04:39:43;;;;;;;;;;;;;;;4.98;100.00;102003.34;5088550;28;20124;-76
2024/02/28 04:42:09;;;;;;;;;;;;;;;4.99;100.00;102005.09;5074329;28;20123;-77
2024/02/28 04:44:34;;;;;;;;;;;;;;;4.99;100.00;102007.69;5083603;28;19920;-77
2024/02/28 04:46:59;;;;;;;;;;;;;;;4.99;100.00;102003.34;5073142;28;20215;-77
2024/02/28 04:49:24;;;;;;;;;;;;;;;4.98;100.00;101996.44;5093342;28;20144;-77
2024/02/28 04:51:50;;;;;;;;;;;;;;;4.99;100.00;102002.50;5091823;28;20627;-77
2024/02/28 04:54:15;;;;;;;;;;;;;;;4.98;100.00;102006.81;5094619;28;19916;-77
2024/02/28 04:56:41;;;;;;;;;;;;;;;5.00;100.00;101996.41;5087142;28;20258;-77
2024/02/28 04:59:06;;;;;;;;;;;;;;;5.02;100.00;101994.72;5089733;28;20267;-77
2024/02/28 05:01:31;;;;;;;;;;;;;;;5.02;100.00;101993.81;5074551;28;19942;-77
2024/02/28 05:03:56;;;;;;;;;;;;;;;5.02;100.00;101988.63;5073881;28;19942;-77
2024/02/28 05:06:22;;;;;;;;;;;;;;;5.00;100.00;101994.72;5076815;28;19952;-77
2024/02/28 05:08:47;;;;;;;;;;;;;;;4.99;100.00;101987.78;5073988;28;19924;-77
2024/02/28 05:11:12;;;;;;;;;;;;;;;5.01;100.00;101995.56;5086082;28;19920;-77
2024/02/28 05:13:37;;;;;;;;;;;;;;;5.02;100.00;101992.13;5087205;28;19920;-77
2024/02/28 05:16:03;;;;;;;;;;;;;;;5.02;100.00;101992.13;5074523;28;20286;-77
2024/02/28 05:18:28;;;;;;;;;;;;;;;5.03;100.00;101998.16;5078827;28;19943;-77
2024/02/28 05:20:53;;;;;;;;;;;;;;;5.03;100.00;102004.22;5082671;28;20218;-77
2024/02/28 05:23:19;;;;;;;;;;;;;;;5.03;100.00;102001.63;5087109;28;19912;-77
2024/02/28 05:25:46;;;;;;;;;;;;;;;5.04;100.00;101999.88;5074150;28;19979;-77
2024/02/28 05:28:11;;;;;;;;;;;;;;;5.06;100.00;102000.75;5077418;28;20332;-77
2024/02/28 05:30:36;;;;;;;;;;;;;;;5.04;100.00;101995.56;5075521;28;19924;-77
2024/02/28 05:33:01;;;;;;;;;;;;;;;5.00;100.00;101999.91;5076062;28;20001;-77
2024/02/28 05:35:27;;;;;;;;;;;;;;;5.04;100.00;101995.56;5077293;28;19931;-77
2024/02/28 05:37:55;;;;;;;;;;;;;;;5.07;100.00;101992.09;5073683;28;19920;-77
2024/02/28 05:40:20;;;;;;;;;;;;;;;5.07;100.00;101995.56;5076554;28;19921;-77
2024/02/28 05:42:46;;;;;;;;;;;;;;;5.07;100.00;101987.78;5077318;28;19924;-77
2024/02/28 05:45:12;;;;;;;;;;;;;;;5.07;100.00;101992.97;5074250;28;19991;-77
2024/02/28 05:47:37;;;;;;;;;;;;;;;5.06;100.00;101998.16;5076304;28;20192;-77
2024/02/28 05:50:02;;;;;;;;;;;;;;;5.07;100.00;102005.09;5082658;28;19927;-77
2024/02/28 05:52:28;;;;;;;;;;;;;;;5.09;100.00;101992.97;5074195;28;19920;-77
2024/02/28 05:54:53;;;;;;;;;;;;;;;5.11;100.00;101991.22;5079212;28;20243;-77
2024/02/28 05:57:18;;;;;;;;;;;;;;;5.12;100.00;101985.19;5073842;28;19956;-77
2024/02/28 05:59:46;;;;;;;;;;;;;;;5.13;100.00;101986.91;5074402;28;19987;-77
2024/02/28 06:02:11;;;;;;;;;;;;;;;5.16;100.00;101994.69;5073726;28;20296;-77
2024/02/28 06:04:37;;;;;;;;;;;;;;;5.16;100.00;101992.09;5082899;28;20135;-77
2024/02/28 06:07:02;;;;;;;;;;;;;;;5.17;100.00;102004.25;5065284;28;20223;-77
2024/02/28 06:09:27;;;;;;;;;;;;;;;5.16;100.00;102000.75;5076938;28;19992;-77
2024/02/28 06:11:53;;;;;;;;;;;;;;;5.16;100.00;101998.16;5079790;28;19947;-76
2024/02/28 06:14:18;;;;;;;;;;;;;;;5.18;100.00;101991.25;5059295;28;19920;-76
2024/02/28 06:16:46;;;;;;;;;;;;;;;5.18;100.00;101993.84;5078865;28;20118;-76
2024/02/28 06:19:11;;;;;;;;;;;;;;;5.18;100.00;101998.16;5076892;28;19912;-76
2024/02/28 06:21:36;;;;;;;;;;;;;;;5.19;100.00;101999.91;5074910;28;20216;-76
2024/02/28 06:24:02;;;;;;;;;;;;;;;5.20;100.00;102004.22;5077984;28;20173;-76
2024/02/28 06:26:27;;;;;;;;;;;;;;;5.21;100.00;102008.56;5062820;28;20227;-77
2024/02/28 06:28:53;;;;;;;;;;;;;;;5.21;100.00;102007.69;5081161;28;20155;-75
2024/02/28 06:31:19;;;;;;;;;;;;;;;5.21;100.00;102018.94;5087633;28;19920;-77
2024/02/28 06:33:45;;;;;;;;;;;;;;;5.21;100.00;102012.91;5089025;28;19959;-77
2024/02/28 06:36:11;;;;;;;;;;;;;;;5.21;100.00;102020.69;5081757;28;19924;-77
2024/02/28 06:38:36;;;;;;;;;;;;;;;5.23;100.00;102030.19;5075117;28;19938;-77
2024/02/28 06:41:02;;;;;;;;;;;;;;;5.22;100.00;102033.69;5086785;28;19912;-77
2024/02/28 06:43:27;;;;;;;;;;;;;;;5.23;100.00;102047.53;5077543;28;20135;-77
2024/02/28 06:45:53;;;;;;;;;;;;;;;5.24;100.00;102037.16;5076476;28;19920;-75
2024/02/28 06:48:18;;;;;;;;;;;;;;;5.26;100.00;102038.00;5076852;28;19947;-77
2024/02/28 06:50:43;;;;;;;;;;;;;;;5.27;100.00;102039.72;5058433;28;20003;-77
2024/02/28 06:53:08;;;;;;;;;;;;;;;5.26;100.00;102039.75;5081689;28;19920;-77
2024/02/28 06:55:34;;;;;;;;;;;;;;;5.26;100.00;102056.19;5076193;28;19931;-77
2024/02/28 06:57:59;;;;;;;;;;;;;;;5.29;100.00;102042.31;5058376;28;19921;-75
2024/02/28 07:00:24;;;;;;;;;;;;;;;5.32;100.00;102050.13;5075941;28;20235;-77
2024/02/28 07:02:50;;;;;;;;;;;;;;;5.31;100.00;102044.06;5089278;28;20225;-76
2024/02/28 07:05:15;;;;;;;;;;;;;;;5.33;100.00;102042.34;5091373;28;19944;-77
2024/02/28 07:07:41;;;;;;;;;;;;;;;5.36;100.00;102044.06;5073879;28;19920;-77
2024/02/28 07:10:08;;;;;;;;;;;;;;;5.35;100.00;102048.41;5075122;28;19928;-77
2024/02/28 07:12:34;;;;;;;;;;;;;;;5.36;100.00;102047.50;5079018;28;19920;-77
2024/02/28 07:14:59;;;;;;;;;;;;;;;5.37;100.00;102051.84;5072116;28;19954;-77
2024/02/28 07:17:24;;;;;;;;;;;;;;;5.41;100.00;102041.47;5074582;28;20258;-75
2024/02/28 07:19:49;;;;;;;;;;;;;;;5.44;100.00;102054.44;5072936;28;20116;-77
2024/02/28 07:22:15;;;;;;;;;;;;;;;5.45;100.00;102056.19;5079959;28;19970;-77
2024/02/28 07:24:41;;;;;;;;;;;;;;;5.46;100.00;102057.94;5068197;28;19927;-77
2024/02/28 07:27:06;;;;;;;;;;;;;;;5.48;100.00;102056.19;5078383;28;20247;-77
2024/02/28 07:29:31;;;;;;;;;;;;;;;5.49;100.00;102053.56;5073856;28;19982;-77
2024/02/28 07:31:56;;;;;;;;;;;;;;;5.51;100.00;102054.47;5074619;28;19927;-77
2024/02/28 07:34:22;;;;;;;;;;;;;;;5.53;100.00;102050.13;5075640;28;19921;-77
2024/02/28 07:36:47;;;;;;;;;;;;;;;5.55;100.00;102060.53;5071108;28;20215;-77
2024/02/28 07:39:12;;;;;;;;;;;;;;;5.55;100.00;102058.78;5038214;28;19925;-77
2024/02/28 07:41:41;;;;;;;;;;;;;;;5.58;100.00;102070.91;5052778;28;19984;-77
2024/02/28 07:44:07;;;;;;;;;;;;;;;5.61;100.00;102072.66;5065858;28;19920;-77
2024/02/28 07:46:35;;;;;;;;;;;;;;;5.62;100.00;102067.47;5069728;28;19924;-76
2024/02/28 07:49:00;;;;;;;;;;;;;;;5.66;100.00;102076.13;5066943;28;19962;-76
2024/02/28 07:51:26;;;;;;;;;;;;;;;5.68;100.00;102077.84;5054594;28;20253;-76
2024/02/28 07:53:51;;;;;;;;;;;;;;;5.71;100.00;102082.16;5060975;28;19926;-76
2024/02/28 07:56:17;;;;;;;;;;;;;;;5.72;100.00;102089.97;5070244;28;19927;-76
2024/02/28 07:58:43;;;;;;;;;;;;;;;5.73;100.00;102091.72;5066420;28;19924;-77
2024/02/28 08:01:08;;;;;;;;;;;;;;;5.74;100.00;102096.03;5066968;28;19920;-76
2024/02/28 08:03:33;;;;;;;;;;;;;;;5.79;100.00;102095.19;5069712;28;19931;-76
2024/02/28 08:05:58;;;;;;;;;;;;;;;5.81;100.00;102093.44;5069843;28;19927;-76
2024/02/28 08:08:24;;;;;;;;;;;;;;;5.85;100.00;102092.56;5052583;28;19921;-76
2024/02/28 08:10:51;;;;;;;;;;;;;;;5.87;100.00;102098.63;5068498;28;19921;-76
2024/02/28 08:13:17;;;;;;;;;;;;;;;5.87;100.00;102102.06;5070628;28;20183;-76
2024/02/28 08:15:42;;;;;;;;;;;;;;;5.89;100.00;102112.47;5068749;28;19931;-76
2024/02/28 08:18:07;;;;;;;;;;;;;;;5.89;100.00;102107.28;5069020;28;20387;-76
2024/02/28 08:20:32;;;;;;;;;;;;;;;5.89;100.00;102112.47;5069821;28;20235;-76
2024/02/28 08:22:58;;;;;;;;;;;;;;;5.92;100.00;102121.16;5070317;28;19921;-76
2024/02/28 08:25:23;;;;;;;;;;;;;;;5.90;100.00;102122.88;5060495;28;19920;-76
2024/02/28 08:27:49;;;;;;;;;;;;;;;5.94;100.00;102116.81;5055445;28;20279;-76
2024/02/28 08:30:14;;;;;;;;;;;;;;;5.94;100.00;102118.56;5059244;28;19943;-76
2024/02/28 08:32:41;;;;;;;;;;;;;;;5.93;100.00;102125.50;5069335;28;19984;-76
2024/02/28 08:35:08;;;;;;;;;;;;;;;5.94;100.00;102131.56;5069442;28;20275;-76
2024/02/28 08:37:33;;;;;;;;;;;;;;;5.94;100.00;102128.94;5070474;28;20105;-76
2024/02/28 08:39:58;;;;;;;;;;;;;;;5.95;100.00;102134.19;5067295;28;20243;-76
2024/02/28 08:42:26;;;;;;;;;;;;;;;5.95;100.00;102129.00;5068083;28;19921;-76
2024/02/28 08:44:52;;;;;;;;;;;;;;;5.98;100.00;102129.84;5066853;28;19932;-76
2024/02/28 08:47:18;;;;;;;;;;;;;;;5.99;100.00;102135.06;5052635;28;20124;-76
2024/02/28 08:49:44;;;;;;;;;;;;;;;6.01;100.00;102125.50;5069876;28;20236;-76
2024/02/28 08:52:09;;;;;;;;;;;;;;;6.03;100.00;102125.50;5064716;28;20194;-76
2024/02/28 08:54:34;;;;;;;;;;;;;;;6.06;100.00;102120.31;5067806;28;19927;-76
2024/02/28 08:57:00;;;;;;;;;;;;;;;6.08;100.00;102119.44;5070031;28;19958;-76
2024/02/28 08:59:25;;;;;;;;;;;;;;;6.12;100.00;102115.94;5070707;28;20089;-76
2024/02/28 09:01:50;;;;;;;;;;;;;;;6.16;100.00;102122.03;5069691;28;20108;-76
2024/02/28 09:04:15;;;;;;;;;;;;;;;6.21;100.00;102109.88;5068883;28;19932;-76
2024/02/28 09:06:41;;;;;;;;;;;;;;;6.24;100.00;102119.41;5069644;28;20227;-76
2024/02/28 09:09:06;;;;;;;;;;;;;;;6.28;100.00;102123.75;5070741;28;19927;-76
2024/02/28 09:11:31;;;;;;;;;;;;;;;6.29;100.00;102118.53;5070232;28;19917;-76
2024/02/28 09:13:57;;;;;;;;;;;;;;;6.33;100.00;102116.75;5068920;28;19927;-76
2024/02/28 09:16:22;;;;;;;;;;;;;;;6.37;100.00;102121.13;5068841;28;20161;-76
2024/02/28 09:18:47;;;;;;;;;;;;;;;6.38;100.00;102117.63;5069622;28;19962;-76
2024/02/28 09:21:12;;;;;;;;;;;;;;;6.42;100.00;102115.88;5069030;28;19927;-76
2024/02/28 09:23:38;;;;;;;;;;;;;;;6.47;100.00;102111.53;5066733;28;20174;-76
2024/02/28 09:26:06;;;;;;;;;;;;;;;6.53;100.00;102108.91;5071797;28;19916;-76
2024/02/28 09:28:32;;;;;;;;;;;;;;;6.59;100.00;102124.50;5067799;28;19917;-76
2024/02/28 09:30:57;;;;;;;;;;;;;;;6.64;100.00;102124.47;5070553;28;19966;-76
2024/02/28 09:33:22;;;;;;;;;;;;;;;6.68;100.00;102128.81;5067206;28;19917;-76
2024/02/28 09:35:47;;;;;;;;;;;;;;;6.70;100.00;102134.88;5072551;28;19920;-77
2024/02/28 09:38:13;;;;;;;;;;;;;;;6.70;100.00;102130.53;5065602;28;19921;-76
2024/02/28 09:40:38;;;;;;;;;;;;;;;6.73;100.00;102129.66;5072095;28;20207;-76
2024/02/28 09:43:04;;;;;;;;;;;;;;;6.76;100.00;102129.66;5075755;28;20006;-76
2024/02/28 09:45:30;;;;;;;;;;;;;;;6.81;100.00;102127.03;5081121;28;19947;-76
2024/02/28 09:47:56;;;;;;;;;;;;;;;6.83;100.00;102131.34;5083354;28;19958;-76
2024/02/28 09:50:22;;;;;;;;;;;;;;;6.86;100.00;102125.28;5084184;28;19948;-76
2024/02/28 09:52:47;;;;;;;;;;;;;;;6.88;100.00;102124.38;5078327;28;19921;-76
2024/02/28 09:55:12;;;;;;;;;;;;;;;6.91;100.00;102128.72;5080178;28;19941;-77
2024/02/28 09:57:38;;;;;;;;;;;;;;;6.91;100.00;102133.91;5071582;28;19924;-77
2024/02/28 10:00:04;;;;;;;;;;;;;;;6.93;100.00;102127.00;5076121;28;19920;-76
2024/02/28 10:02:30;;;;;;;;;;;;;;;6.97;100.00;102117.38;5074887;28;20180;-76
2024/02/28 10:04:55;;;;;;;;;;;;;;;6.98;100.00;102114.78;5078914;28;19942;-76
2024/02/28 10:07:21;;;;;;;;;;;;;;;7.00;100.00;102117.38;5078909;28;19920;-76
2024/02/28 10:09:47;;;;;;;;;;;;;;;7.02;100.00;102121.72;5080828;28;20227;-76
2024/02/28 10:12:12;;;;;;;;;;;;;;;7.00;100.00;102115.63;5078404;28;19920;-76
2024/02/28 10:14:38;;;;;;;;;;;;;;;7.02;100.00;102105.22;5081440;28;19943;-76
2024/02/28 10:17:03;;;;;;;;;;;;;;;7.03;100.00;102112.16;5086972;28;19930;-76
2024/02/28 10:19:29;;;;;;;;;;;;;;;7.06;100.00;102112.16;5057437;28;20235;-76
2024/02/28 10:21:55;;;;;;;;;;;;;;;7.09;100.00;102110.41;5077498;28;20181;-76
2024/02/28 10:24:20;;;;;;;;;;;;;;;7.13;100.00;102111.25;5088589;28;19920;-76
2024/02/28 10:26:55;;;;;;;;;;;;;;;7.18;100.00;102121.63;5081904;28;19927;-76
2024/02/28 10:29:28;;;;;;;;;;;;;;;7.23;100.00;102112.03;5087312;28;19921;-76
2024/02/28 10:31:56;;;;;;;;;;;;;;;7.31;100.00;102110.25;5070776;28;19912;-76
2024/02/28 10:34:21;;;;;;;;;;;;;;;7.38;100.00;102109.31;5083736;28;19908;-78
2024/02/28 10:36:47;;;;;;;;;;;;;;;7.42;100.00;102111.06;5062331;28;19985;-75
2024/02/28 10:39:13;;;;;;;;;;;;;;;7.50;100.00;102111.00;5075795;28;19924;-75
2024/02/28 10:41:39;;;;;;;;;;;;;;;7.56;100.00;102108.31;5076946;28;19908;-75
2024/02/28 10:44:04;;;;;;;;;;;;;;;7.61;100.00;102110.91;5082344;28;20031;-75
2024/02/28 10:46:30;;;;;;;;;;;;;;;7.63;100.00;102109.16;5064114;28;19924;-75
2024/02/28 10:48:57;;;;;;;;;;;;;;;7.63;100.00;102109.16;5076437;28;19947;-75
2024/02/28 10:51:25;;;;;;;;;;;;;;;7.63;100.00;102115.22;5078844;28;19920;-75
2024/02/28 10:53:58;;;;;;;;;;;;;;;7.65;100.00;102117.81;5082492;28;19993;-75
2024/02/28 10:56:23;;;;;;;;;;;;;;;7.70;100.00;102116.03;5079078;28;19957;-75
2024/02/28 10:58:52;;;;;;;;;;;;;;;7.74;100.00;102116.88;5089206;28;19924;-75
2024/02/28 11:01:17;;;;;;;;;;;;;;;7.77;100.00;102112.50;5076530;28;19957;-76
2024/02/28 11:03:44;;;;;;;;;;;;;;;7.81;100.00;102118.56;5061283;28;19951;-75
2024/02/28 11:06:17;;;;;;;;;;;;;;;7.83;100.00;102114.19;5061345;28;19988;-75
2024/02/28 11:08:45;;;;;;;;;;;;;;;7.82;100.00;102120.28;5076285;28;19974;-75
2024/02/28 11:11:13;;;;;;;;;;;;;;;7.83;100.00;102117.66;5072989;28;19926;-75
2024/02/28 11:13:39;;;;;;;;;;;;;;;7.80;100.00;102116.81;5080738;28;20218;-76
2024/02/28 11:16:08;;;;;;;;;;;;;;;7.82;100.00;102113.34;5075157;28;19921;-75
2024/02/28 11:18:33;;;;;;;;;;;;;;;7.84;100.00;102108.97;5081477;28;19924;-76
2024/02/28 11:20:59;;;;;;;;;;;;;;;7.87;100.00;102110.69;5075616;28;19962;-75
2024/02/28 11:23:24;;;;;;;;;;;;;;;7.91;100.00;102108.91;5058410;28;20107;-76
2024/02/28 11:25:49;;;;;;;;;;;;;;;7.94;100.00;102107.13;5080651;28;20130;-75
2024/02/28 11:28:15;;;;;;;;;;;;;;;7.98;100.00;102100.16;5088491;28;19912;-76
2024/02/28 11:30:41;;;;;;;;;;;;;;;8.01;100.00;102095.75;5061561;28;20095;-75
2024/02/28 11:33:08;;;;;;;;;;;;;;;8.03;100.00;102098.34;5075545;28;19973;-75
2024/02/28 11:35:34;;;;;;;;;;;;;;;8.10;100.00;102092.19;5088639;28;19923;-76
2024/02/28 11:37:59;;;;;;;;;;;;;;;8.13;100.00;102091.28;5076670;28;20142;-76
2024/02/28 11:40:27;;;;;;;;;;;;;;;8.11;100.00;102086.09;5075117;28;19916;-76
2024/02/28 11:42:54;;;;;;;;;;;;;;;8.06;100.00;102086.16;5074665;28;20231;-76
2024/02/28 11:45:19;;;;;;;;;;;;;;;8.11;100.00;102090.44;5075348;28;20262;-76
2024/02/28 11:47:47;;;;;;;;;;;;;;;8.11;100.00;102085.22;5074240;28;20808;-76
2024/02/28 11:50:12;;;;;;;;;;;;;;;8.12;100.00;102087.81;5058282;28;19928;-76
2024/02/28 11:52:38;;;;;;;;;;;;;;;8.18;100.00;102090.34;5082648;28;20115;-76
2024/02/28 11:55:03;;;;;;;;;;;;;;;8.20;100.00;102092.97;5074122;28;19924;-76
2024/02/28 11:57:30;;;;;;;;;;;;;;;8.21;100.00;102092.09;5074568;28;19966;-76
2024/02/28 11:59:56;;;;;;;;;;;;;;;8.20;100.00;102096.41;5076758;28;19971;-76
2024/02/28 12:02:25;;;;;;;;;;;;;;;8.16;100.00;102086.91;5073746;28;20238;-76
2024/02/28 12:04:50;;;;;;;;;;;;;;;8.12;100.00;102087.81;5088451;28;20111;-76
2024/02/28 12:07:15;;;;;;;;;;;;;;;8.08;100.00;102094.81;5056278;28;20138;-76
2024/02/28 12:09:41;;;;;;;;;;;;;;;8.04;100.00;102097.47;5074265;28;20250;-76
2024/02/28 12:12:06;;;;;;;;;;;;;;;8.04;100.00;102095.75;5056693;28;19917;-76
2024/02/28 12:14:33;;;;;;;;;;;;;;;8.06;100.00;102100.94;5088541;28;19912;-76
2024/02/28 12:16:58;;;;;;;;;;;;;;;8.04;100.00;102103.56;5087189;28;19920;-76
2024/02/28 12:19:23;;;;;;;;;;;;;;;8.05;100.00;102104.44;5072769;28;20155;-76
2024/02/28 12:21:49;;;;;;;;;;;;;;;8.01;100.00;102093.16;5076758;28;19920;-76
2024/02/28 12:24:14;;;;;;;;;;;;;;;7.95;100.00;102105.38;5073728;28;19921;-76
2024/02/28 12:26:39;;;;;;;;;;;;;;;7.89;100.00;102093.25;5059204;28;20357;-76